createdAt,value
2023-02-25T00:00:38.531Z,17.60
2023-02-25T00:03:05.307Z,17.60
2023-02-25T00:05:33.597Z,17.50
2023-02-25T00:08:00.471Z,17.50
2023-02-25T00:10:27.604Z,17.50
2023-02-25T00:12:54.336Z,17.50
2023-02-25T00:15:21.123Z,17.40
2023-02-25T00:17:49.747Z,17.40
2023-02-25T00:20:20.669Z,17.30
2023-02-25T00:22:47.385Z,17.30
2023-02-25T00:25:16.703Z,17.30
2023-02-25T00:27:44.124Z,17.20
2023-02-25T00:30:12.308Z,17.20
2023-02-25T00:32:39.609Z,17.10
2023-02-25T00:35:07.482Z,17.10
2023-02-25T00:37:36.446Z,17.10
2023-02-25T00:40:03.413Z,17.10
2023-02-25T00:42:30.378Z,17.00
2023-02-25T00:44:58.475Z,17.00
2023-02-25T00:47:25.231Z,17.00
2023-02-25T00:49:52.363Z,17.00
2023-02-25T00:52:19.200Z,17.10
2023-02-25T00:54:46.651Z,17.10
2023-02-25T00:57:13.544Z,17.20
2023-02-25T00:59:40.259Z,17.30
2023-02-25T01:02:06.973Z,17.30
2023-02-25T01:04:33.734Z,17.40
2023-02-25T01:07:02.765Z,17.40
2023-02-25T01:09:30.398Z,17.50
2023-02-25T01:11:57.734Z,17.60
2023-02-25T01:14:26.143Z,17.60
2023-02-25T01:16:57.215Z,17.70
2023-02-25T01:19:25.913Z,17.70
2023-02-25T01:21:55.934Z,17.80
2023-02-25T01:24:29.371Z,17.80
2023-02-25T01:26:58.963Z,17.80
2023-02-25T01:29:45.436Z,17.80
2023-02-25T01:32:14.172Z,17.80
2023-02-25T01:34:41.920Z,17.80
2023-02-25T01:37:08.953Z,17.80
2023-02-25T01:39:40.511Z,17.80
2023-02-25T01:42:15.346Z,17.70
2023-02-25T01:45:22.633Z,17.70
2023-02-25T01:48:03.503Z,17.70
2023-02-25T01:50:37.680Z,17.70
2023-02-25T01:53:06.146Z,17.60
2023-02-25T01:55:33.568Z,17.60
2023-02-25T01:58:01.260Z,17.50
2023-02-25T02:00:32.294Z,17.50
2023-02-25T02:02:59.813Z,17.50
2023-02-25T02:05:39.091Z,17.50
2023-02-25T02:08:06.275Z,17.40
2023-02-25T02:10:33.032Z,17.40
2023-02-25T02:12:59.940Z,17.30
2023-02-25T02:15:32.191Z,17.30
2023-02-25T02:18:00.898Z,17.30
2023-02-25T02:20:53.811Z,17.30
2023-02-25T02:23:44.004Z,17.30
2023-02-25T02:26:55.113Z,17.30
2023-02-25T02:29:46.045Z,17.30
2023-02-25T02:32:31.331Z,17.40
2023-02-25T02:35:08.014Z,17.50
2023-02-25T02:37:56.685Z,17.50
2023-02-25T02:40:41.273Z,17.60
2023-02-25T02:43:37.530Z,17.70
2023-02-25T02:46:18.107Z,17.70
2023-02-25T02:48:55.176Z,17.80
2023-02-25T02:51:28.860Z,17.90
2023-02-25T02:53:59.602Z,17.90
2023-02-25T02:56:29.354Z,18.00
2023-02-25T02:59:05.722Z,18.00
2023-02-25T03:01:38.698Z,18.10
2023-02-25T03:04:10.637Z,18.10
2023-02-25T03:06:41.866Z,18.10
2023-02-25T03:09:22.625Z,18.10
2023-02-25T03:11:50.615Z,18.10
2023-02-25T03:14:18.515Z,18.10
2023-02-25T03:16:52.834Z,18.10
2023-02-25T03:19:24.930Z,18.10
2023-02-25T03:22:00.809Z,18.00
2023-02-25T03:24:35.851Z,18.00
2023-02-25T03:27:23.252Z,18.00
2023-02-25T03:29:52.620Z,17.90
2023-02-25T03:32:20.457Z,17.90
2023-02-25T03:34:50.038Z,17.90
2023-02-25T03:37:26.122Z,17.80
2023-02-25T03:39:58.641Z,17.80
2023-02-25T03:42:33.442Z,17.80
2023-02-25T03:45:04.995Z,17.70
2023-02-25T03:47:36.137Z,17.70
2023-02-25T03:50:09.370Z,17.60
2023-02-25T03:52:40.516Z,17.60
2023-02-25T03:55:16.974Z,17.50
2023-02-25T03:57:46.005Z,17.50
2023-02-25T04:00:19.034Z,17.50
2023-02-25T04:02:47.247Z,17.50
2023-02-25T04:05:14.739Z,17.40
2023-02-25T04:07:41.782Z,17.40
2023-02-25T04:10:10.386Z,17.40
2023-02-25T04:12:38.740Z,17.40
2023-02-25T04:15:06.423Z,17.40
2023-02-25T04:17:34.066Z,17.40
2023-02-25T04:20:00.829Z,17.50
2023-02-25T04:22:27.542Z,17.60
2023-02-25T04:24:54.342Z,17.60
2023-02-25T04:27:21.191Z,17.70
2023-02-25T04:29:48.014Z,17.70
2023-02-25T04:32:14.898Z,17.80
2023-02-25T04:34:41.701Z,17.80
2023-02-25T04:37:09.881Z,17.90
2023-02-25T04:39:37.419Z,18.00
2023-02-25T04:42:04.454Z,18.00
2023-02-25T04:44:31.208Z,18.00
2023-02-25T04:46:57.991Z,18.00
2023-02-25T04:49:25.077Z,18.00
2023-02-25T04:51:52.066Z,18.10
2023-02-25T04:54:22.053Z,18.10
2023-02-25T04:56:48.913Z,18.00
2023-02-25T04:59:16.267Z,18.00
2023-02-25T05:01:43.257Z,18.00
2023-02-25T05:04:10.002Z,18.00
2023-02-25T05:06:36.895Z,18.00
2023-02-25T05:09:03.958Z,17.90
2023-02-25T05:11:30.797Z,17.90
2023-02-25T05:13:58.305Z,17.90
2023-02-25T05:16:26.586Z,17.80
2023-02-25T05:18:53.755Z,17.80
2023-02-25T05:21:23.975Z,17.80
2023-02-25T05:23:52.784Z,17.70
2023-02-25T05:26:22.105Z,17.70
2023-02-25T05:28:57.568Z,17.60
2023-02-25T05:31:26.025Z,17.60
2023-02-25T05:33:53.593Z,17.60
2023-02-25T05:36:20.713Z,17.50
2023-02-25T05:38:47.944Z,17.50
2023-02-25T05:41:15.702Z,17.50
2023-02-25T05:43:42.753Z,17.40
2023-02-25T05:46:11.917Z,17.50
2023-02-25T05:48:45.815Z,17.50
2023-02-25T05:51:15.712Z,17.60
2023-02-25T05:53:44.638Z,17.60
2023-02-25T05:56:14.404Z,17.70
2023-02-25T05:58:41.436Z,17.70
2023-02-25T06:01:13.649Z,17.80
2023-02-25T06:03:41.805Z,17.80
2023-02-25T06:06:10.527Z,17.90
2023-02-25T06:08:38.824Z,17.90
2023-02-25T06:11:06.807Z,18.00
2023-02-25T06:13:34.298Z,18.00
2023-02-25T06:16:04.865Z,18.00
2023-02-25T06:18:36.688Z,18.00
2023-02-25T06:21:08.435Z,18.10
2023-02-25T06:23:35.863Z,18.10
2023-02-25T06:26:03.573Z,18.10
2023-02-25T06:28:30.613Z,18.00
2023-02-25T06:30:57.349Z,18.00
2023-02-25T06:33:24.243Z,18.00
2023-02-25T06:35:55.307Z,18.00
2023-02-25T06:38:22.554Z,18.00
2023-02-25T06:40:49.658Z,18.00
2023-02-25T06:43:19.306Z,17.90
2023-02-25T06:45:46.156Z,17.90
2023-02-25T06:48:13.017Z,17.90
2023-02-25T06:50:41.015Z,17.90
2023-02-25T06:53:08.716Z,17.80
2023-02-25T06:55:37.995Z,17.80
2023-02-25T06:58:04.963Z,17.80
2023-02-25T07:00:31.793Z,17.70
2023-02-25T07:02:58.628Z,17.70
2023-02-25T07:05:25.425Z,17.70
2023-02-25T07:07:52.199Z,17.60
2023-02-25T07:10:18.980Z,17.60
2023-02-25T07:12:45.804Z,17.60
2023-02-25T07:15:12.500Z,17.50
2023-02-25T07:17:39.341Z,17.50
2023-02-25T07:20:06.842Z,17.50
2023-02-25T07:22:33.574Z,17.40
2023-02-25T07:25:00.583Z,17.40
2023-02-25T07:27:27.501Z,17.40
2023-02-25T07:29:55.058Z,17.30
2023-02-25T07:32:24.789Z,17.30
2023-02-25T07:34:51.863Z,17.30
2023-02-25T07:37:18.577Z,17.30
2023-02-25T07:39:47.642Z,17.30
2023-02-25T07:42:14.843Z,17.30
2023-02-25T07:44:47.324Z,17.40
2023-02-25T07:47:14.072Z,17.40
2023-02-25T07:49:40.755Z,17.50
2023-02-25T07:52:07.528Z,17.50
2023-02-25T07:54:34.255Z,17.60
2023-02-25T07:57:00.946Z,17.70
2023-02-25T07:59:28.822Z,17.70
2023-02-25T08:01:55.549Z,17.80
2023-02-25T08:04:22.403Z,17.80
2023-02-25T08:06:49.740Z,17.90
2023-02-25T08:09:16.583Z,18.00
2023-02-25T08:11:44.268Z,18.00
2023-02-25T08:14:11.585Z,18.10
2023-02-25T08:16:38.778Z,18.10
2023-02-25T08:19:06.794Z,18.20
2023-02-25T08:21:33.941Z,18.20
2023-02-25T08:24:00.614Z,18.20
2023-02-25T08:26:27.597Z,18.20
2023-02-25T08:28:56.113Z,18.30
2023-02-25T08:31:23.433Z,18.30
2023-02-25T08:33:52.622Z,18.30
2023-02-25T08:36:22.420Z,18.30
2023-02-25T08:38:50.328Z,18.30
2023-02-25T08:41:18.848Z,18.30
2023-02-25T08:43:49.842Z,18.30
2023-02-25T08:46:16.723Z,18.20
2023-02-25T08:48:43.580Z,18.20
2023-02-25T08:51:11.312Z,18.20
2023-02-25T08:53:40.292Z,18.20
2023-02-25T08:56:09.138Z,18.20
2023-02-25T08:58:36.837Z,18.20
2023-02-25T09:01:09.139Z,18.20
2023-02-25T09:03:36.028Z,18.10
2023-02-25T09:06:02.852Z,18.10
2023-02-25T09:08:34.579Z,18.10
2023-02-25T09:17:54.957Z,18.10
2023-02-25T09:20:21.654Z,18.10
2023-02-25T09:22:48.443Z,18.00
2023-02-25T09:25:15.212Z,18.00
2023-02-25T09:27:41.960Z,17.90
2023-02-25T09:30:09.942Z,17.90
2023-02-25T09:32:37.252Z,17.90
2023-02-25T09:35:07.449Z,17.80
2023-02-25T09:37:34.957Z,17.80
2023-02-25T09:40:01.712Z,17.80
2023-02-25T09:42:51.471Z,17.70
2023-02-25T09:45:22.419Z,17.70
2023-02-25T09:47:58.679Z,17.70
2023-02-25T09:50:40.293Z,17.60
2023-02-25T09:53:23.052Z,17.60
2023-02-25T09:55:52.291Z,17.50
2023-02-25T09:58:34.183Z,17.50
2023-02-25T10:01:11.069Z,17.50
2023-02-25T10:03:57.200Z,17.40
2023-02-25T10:06:37.759Z,17.40
2023-02-25T10:09:37.495Z,17.40
2023-02-25T10:12:22.922Z,17.30
2023-02-25T10:15:23.199Z,17.30
2023-02-25T10:18:02.749Z,17.30
2023-02-25T10:21:00.005Z,17.20
2023-02-25T10:23:51.513Z,17.20
2023-02-25T10:26:26.170Z,17.10
2023-02-25T10:29:00.440Z,17.10
2023-02-25T10:31:30.636Z,17.10
2023-02-25T10:34:02.469Z,17.10
2023-02-25T10:36:41.518Z,17.10
2023-02-25T10:39:10.737Z,17.20
2023-02-25T10:41:37.819Z,17.30
2023-02-25T10:44:04.495Z,17.30
2023-02-25T10:46:45.401Z,17.40
2023-02-25T10:49:16.603Z,17.50
2023-02-25T10:52:04.065Z,17.60
2023-02-25T10:54:33.909Z,17.70
2023-02-25T10:57:08.418Z,17.70
2023-02-25T10:59:38.550Z,17.80
2023-02-25T11:02:22.098Z,17.90
2023-02-25T11:04:50.120Z,17.90
2023-02-25T11:07:29.617Z,18.00
2023-02-25T11:10:15.981Z,18.00
2023-02-25T11:12:47.134Z,18.00
2023-02-25T11:15:45.387Z,18.10
2023-02-25T11:18:24.001Z,18.10
2023-02-25T11:20:57.084Z,18.10
2023-02-25T11:23:45.962Z,18.10
2023-02-25T11:26:45.830Z,18.10
2023-02-25T11:29:23.068Z,18.10
2023-02-25T11:31:59.981Z,18.10
2023-02-25T11:34:31.598Z,18.10
2023-02-25T11:37:24.094Z,18.00
2023-02-25T11:39:56.020Z,18.00
2023-02-25T11:42:26.642Z,18.00
2023-02-25T11:45:01.923Z,18.00
2023-02-25T11:47:32.456Z,18.00
2023-02-25T11:50:27.684Z,18.00
2023-02-25T11:53:13.476Z,17.90
2023-02-25T11:55:40.194Z,17.90
2023-02-25T11:58:39.759Z,17.90
2023-02-25T12:01:43.399Z,17.80
2023-02-25T12:04:21.902Z,17.80
2023-02-25T12:07:26.449Z,17.80
2023-02-25T12:10:12.010Z,17.80
2023-02-25T12:12:50.871Z,17.80
2023-02-25T12:15:41.571Z,17.70
2023-02-25T12:18:50.263Z,17.70
2023-02-25T12:21:39.442Z,17.70
2023-02-25T12:24:18.161Z,17.70
2023-02-25T12:27:22.265Z,17.60
2023-02-25T12:30:16.343Z,17.60
2023-02-25T12:33:07.060Z,17.60
2023-02-25T12:35:42.828Z,17.50
2023-02-25T12:38:42.327Z,17.50
2023-02-25T12:41:48.364Z,17.50
2023-02-25T12:44:40.975Z,17.50
2023-02-25T12:47:34.955Z,17.40
2023-02-25T12:50:04.525Z,17.40
2023-02-25T12:52:54.179Z,17.40
2023-02-25T12:55:29.499Z,17.40
2023-02-25T12:58:16.629Z,17.40
2023-02-25T13:01:22.349Z,17.30
2023-02-25T13:03:58.862Z,17.30
2023-02-25T13:06:43.819Z,17.30
2023-02-25T13:09:22.986Z,17.30
2023-02-25T13:12:20.480Z,17.30
2023-02-25T13:15:04.344Z,17.20
2023-02-25T13:17:49.135Z,17.20
2023-02-25T13:20:37.002Z,17.10
2023-02-25T13:23:21.909Z,17.10
2023-02-25T13:26:00.541Z,17.10
2023-02-25T13:28:45.818Z,17.10
2023-02-25T13:31:46.451Z,17.10
2023-02-25T13:34:18.239Z,17.00
2023-02-25T13:37:11.754Z,17.00
2023-02-25T13:39:55.133Z,17.00
2023-02-25T13:42:30.487Z,17.00
2023-02-25T13:45:34.872Z,17.00
2023-02-25T13:48:35.197Z,17.00
2023-02-25T13:51:07.915Z,16.90
2023-02-25T13:54:10.474Z,16.90
2023-02-25T13:56:57.226Z,16.90
2023-02-25T14:00:02.703Z,16.90
2023-02-25T14:03:04.543Z,16.90
2023-02-25T14:05:58.640Z,16.90
2023-02-25T14:08:44.636Z,16.90
2023-02-25T14:12:11.974Z,16.80
2023-02-25T14:15:27.676Z,16.80
2023-02-25T14:18:15.293Z,16.90
2023-02-25T14:21:20.615Z,16.90
2023-02-25T14:24:02.239Z,16.90
2023-02-25T14:26:44.312Z,17.00
2023-02-25T14:29:45.795Z,17.10
2023-02-25T14:32:58.275Z,17.20
2023-02-25T14:35:46.761Z,17.30
2023-02-25T14:38:17.560Z,17.40
2023-02-25T14:41:08.264Z,17.50
2023-02-25T14:43:36.364Z,17.50
2023-02-25T14:46:43.004Z,17.60
2023-02-25T14:49:32.411Z,17.70
2023-02-25T14:52:23.303Z,17.80
2023-02-25T14:55:08.083Z,17.80
2023-02-25T14:57:40.975Z,17.80
2023-02-25T15:00:25.520Z,17.80
2023-02-25T15:03:07.928Z,17.90
2023-02-25T15:05:59.315Z,17.90
2023-02-25T15:08:43.192Z,17.90
2023-02-25T15:11:47.258Z,17.90
2023-02-25T15:14:32.923Z,17.90
2023-02-25T15:17:29.235Z,17.90
2023-02-25T15:20:22.101Z,17.90
2023-02-25T15:23:12.590Z,17.90
2023-02-25T15:25:48.260Z,17.90
2023-02-25T15:28:30.021Z,17.90
2023-02-25T15:31:00.291Z,17.90
2023-02-25T15:33:27.246Z,17.90
2023-02-25T15:35:57.994Z,17.90
2023-02-25T15:38:39.202Z,17.80
2023-02-25T15:41:39.534Z,17.80
2023-02-25T15:44:08.980Z,17.80
2023-02-25T15:46:35.718Z,17.80
2023-02-25T15:49:10.272Z,17.70
2023-02-25T15:51:52.578Z,17.60
2023-02-25T15:54:28.752Z,17.60
2023-02-25T15:56:57.925Z,17.50
2023-02-25T15:59:48.016Z,17.50
2023-02-25T16:02:41.187Z,17.50
2023-02-25T16:05:23.500Z,17.40
2023-02-25T16:08:15.471Z,17.40
2023-02-25T16:10:47.706Z,17.40
2023-02-25T16:13:26.122Z,17.40
2023-02-25T16:15:55.472Z,17.30
2023-02-25T16:18:33.401Z,17.30
2023-02-25T16:21:06.058Z,17.30
2023-02-25T16:23:38.588Z,17.30
2023-02-25T16:26:16.712Z,17.20
2023-02-25T16:29:21.196Z,17.20
2023-02-25T16:31:58.528Z,17.20
2023-02-25T16:34:50.244Z,17.10
2023-02-25T16:37:27.014Z,17.10
2023-02-25T16:39:54.210Z,17.20
2023-02-25T16:42:21.785Z,17.30
2023-02-25T16:45:00.529Z,17.30
2023-02-25T16:47:34.678Z,17.40
2023-02-25T16:50:11.235Z,17.40
2023-02-25T16:52:41.819Z,17.50
2023-02-25T16:55:12.641Z,17.60
2023-02-25T16:57:39.710Z,17.60
2023-02-25T17:00:18.830Z,17.70
2023-02-25T17:02:48.765Z,17.80
2023-02-25T17:05:26.482Z,17.80
2023-02-25T17:08:00.384Z,17.90
2023-02-25T17:10:31.502Z,18.00
2023-02-25T17:13:01.707Z,18.10
2023-02-25T17:15:31.309Z,18.10
2023-02-25T17:18:07.027Z,18.20
2023-02-25T17:20:34.693Z,18.20
2023-02-25T17:23:08.729Z,18.30
2023-02-25T17:25:38.930Z,18.30
2023-02-25T17:28:07.715Z,18.40
2023-02-25T17:30:52.782Z,18.50
2023-02-25T17:33:26.979Z,18.60
2023-02-25T17:36:01.720Z,18.60
2023-02-25T17:38:29.243Z,18.70
2023-02-25T17:40:56.398Z,18.90
2023-02-25T17:43:36.819Z,19.10
2023-02-25T17:46:37.721Z,19.40
2023-02-25T17:49:26.167Z,19.80
2023-02-25T17:52:02.238Z,20.10
2023-02-25T17:54:33.020Z,20.40
2023-02-25T17:57:05.626Z,20.80
2023-02-25T17:59:39.295Z,21.00
2023-02-25T18:02:30.160Z,21.30
2023-02-25T18:05:23.494Z,21.50
2023-02-25T18:08:15.481Z,21.70
2023-02-25T18:10:45.247Z,21.90
2023-02-25T18:13:28.370Z,22.00
2023-02-25T18:16:27.774Z,22.20
2023-02-25T18:18:56.002Z,22.30
2023-02-25T18:21:23.578Z,22.30
2023-02-25T18:23:51.140Z,22.40
2023-02-25T18:26:20.904Z,22.50
2023-02-25T18:28:47.735Z,22.50
2023-02-25T18:31:16.803Z,22.60
2023-02-25T18:33:43.703Z,22.70
2023-02-25T18:36:23.499Z,22.80
2023-02-25T18:38:52.462Z,23.00
2023-02-25T18:41:19.188Z,23.10
2023-02-25T18:43:46.032Z,23.30
2023-02-25T18:46:13.192Z,23.40
2023-02-25T18:48:40.041Z,23.50
2023-02-25T18:51:13.127Z,23.60
2023-02-25T18:53:40.389Z,23.60
2023-02-25T18:56:07.403Z,23.70
2023-02-25T18:58:34.288Z,23.80
2023-02-25T19:01:01.339Z,23.70
2023-02-25T19:03:38.994Z,23.70
2023-02-25T19:06:06.320Z,23.80
2023-02-25T19:08:33.534Z,23.70
2023-02-25T19:11:00.599Z,23.70
2023-02-25T19:13:34.935Z,23.70
2023-02-25T19:16:02.134Z,23.70
2023-02-25T19:18:29.294Z,23.60
2023-02-25T19:20:56.185Z,23.60
2023-02-25T19:23:23.105Z,23.60
2023-02-25T19:25:55.493Z,23.60
2023-02-25T19:28:22.327Z,23.60
2023-02-25T19:30:49.103Z,23.70
2023-02-25T19:33:15.848Z,23.80
2023-02-25T19:35:43.695Z,23.90
2023-02-25T19:38:20.451Z,24.00
2023-02-25T19:40:47.960Z,24.00
2023-02-25T19:43:16.195Z,24.10
2023-02-25T19:45:44.017Z,24.20
2023-02-25T19:48:11.023Z,24.20
2023-02-25T19:50:40.985Z,24.20
2023-02-25T19:53:07.783Z,24.30
2023-02-25T19:55:34.710Z,24.30
2023-02-25T19:58:02.038Z,24.30
2023-02-25T20:00:28.753Z,24.30
2023-02-25T20:02:56.209Z,24.30
2023-02-25T20:05:23.379Z,24.30
2023-02-25T20:07:50.638Z,24.30
2023-02-25T20:10:17.737Z,24.30
2023-02-25T20:12:45.700Z,24.30
2023-02-25T20:15:14.408Z,24.20
2023-02-25T20:17:42.618Z,24.20
2023-02-25T20:20:11.750Z,24.20
2023-02-25T20:22:41.712Z,24.10
2023-02-25T20:25:10.114Z,24.10
2023-02-25T20:27:39.583Z,24.00
2023-02-25T20:30:07.955Z,24.00
2023-02-25T20:32:35.144Z,23.90
2023-02-25T20:35:02.550Z,23.90
2023-02-25T20:37:33.670Z,23.80
2023-02-25T20:40:00.865Z,23.70
2023-02-25T20:42:31.169Z,23.60
2023-02-25T20:44:59.181Z,23.60
2023-02-25T20:47:29.093Z,23.50
2023-02-25T20:49:58.033Z,23.50
2023-02-25T20:52:26.746Z,23.40
2023-02-25T20:54:53.724Z,23.30
2023-02-25T20:57:23.590Z,23.30
2023-02-25T20:59:50.695Z,23.20
2023-02-25T21:02:17.983Z,23.10
2023-02-25T21:04:45.261Z,23.00
2023-02-25T21:07:12.332Z,23.00
2023-02-25T21:09:39.250Z,22.90
2023-02-25T21:12:06.915Z,22.80
2023-02-25T21:14:33.982Z,22.70
2023-02-25T21:17:00.793Z,22.70
2023-02-25T21:19:30.341Z,22.60
2023-02-25T21:21:57.024Z,22.50
2023-02-25T21:24:23.778Z,22.50
2023-02-25T21:26:50.763Z,22.40
2023-02-25T21:29:17.906Z,22.30
2023-02-25T21:31:45.473Z,22.30
2023-02-25T21:34:13.932Z,22.20
2023-02-25T21:36:45.203Z,22.20
2023-02-25T21:39:14.887Z,22.10
2023-02-25T21:41:44.286Z,22.10
2023-02-25T21:44:12.261Z,22.00
2023-02-25T21:46:39.395Z,21.90
2023-02-25T21:49:06.317Z,21.90
2023-02-25T21:51:33.061Z,21.90
2023-02-25T21:54:01.173Z,21.80
2023-02-25T21:56:29.456Z,21.70
2023-02-25T21:59:01.888Z,21.70
2023-02-25T22:01:32.449Z,21.60
2023-02-25T22:03:59.526Z,21.60
2023-02-25T22:06:27.689Z,21.50
2023-02-25T22:08:55.434Z,21.40
2023-02-25T22:11:28.282Z,21.30
2023-02-25T22:13:55.503Z,21.30
2023-02-25T22:16:23.283Z,21.20
2023-02-25T22:18:50.999Z,21.10
2023-02-25T22:21:20.802Z,21.00
2023-02-25T22:23:49.107Z,21.00
2023-02-25T22:26:21.382Z,20.90
2023-02-25T22:28:48.235Z,20.90
2023-02-25T22:31:17.295Z,20.80
2023-02-25T22:33:45.264Z,20.70
2023-02-25T22:36:13.219Z,20.70
2023-02-25T22:38:41.978Z,20.60
2023-02-25T22:41:14.972Z,20.50
2023-02-25T22:43:41.714Z,20.50
2023-02-25T22:46:09.779Z,20.40
2023-02-25T22:48:38.887Z,20.40
2023-02-25T22:51:09.230Z,20.30
2023-02-25T22:53:40.366Z,20.20
2023-02-25T22:56:09.711Z,20.20
2023-02-25T22:58:40.334Z,20.20
2023-02-25T23:01:11.640Z,20.10
2023-02-25T23:03:38.607Z,20.00
2023-02-25T23:06:06.275Z,20.00
2023-02-25T23:08:34.646Z,19.90
2023-02-25T23:11:19.345Z,19.90
2023-02-25T23:13:48.019Z,19.80
2023-02-25T23:16:16.082Z,19.70
2023-02-25T23:18:43.235Z,19.70
2023-02-25T23:21:15.638Z,19.70
2023-02-25T23:23:44.437Z,19.60
2023-02-25T23:26:13.554Z,19.50
2023-02-25T23:28:41.122Z,19.50
2023-02-25T23:31:08.811Z,19.40
2023-02-25T23:33:35.563Z,19.40
2023-02-25T23:36:05.235Z,19.30
2023-02-25T23:38:31.973Z,19.30
2023-02-25T23:40:59.884Z,19.30
2023-02-25T23:43:26.702Z,19.20
2023-02-25T23:45:53.479Z,19.20
2023-02-25T23:48:20.190Z,19.10
2023-02-25T23:50:46.951Z,19.10
2023-02-25T23:53:13.712Z,19.00
2023-02-25T23:55:40.468Z,19.00
2023-02-25T23:58:07.127Z,19.00
